createdAt,value
2023-03-26T04:02:26.082Z,100.00
2023-03-26T04:06:42.251Z,100.00
2023-03-26T04:10:55.911Z,100.00
2023-03-26T04:15:26.054Z,100.00
2023-03-26T04:19:38.389Z,100.00
2023-03-26T04:23:54.217Z,100.00
2023-03-26T04:28:33.060Z,100.00
2023-03-26T04:33:04.135Z,100.00
2023-03-26T04:37:27.979Z,100.00
2023-03-26T04:41:51.853Z,100.00
2023-03-26T04:46:05.789Z,100.00
2023-03-26T04:50:23.746Z,100.00
2023-03-26T04:54:36.423Z,100.00
2023-03-26T04:58:56.931Z,100.00
2023-03-26T05:03:11.642Z,100.00
2023-03-26T05:07:24.138Z,100.00
2023-03-26T05:11:46.036Z,100.00
2023-03-26T05:15:57.884Z,100.00
2023-03-26T05:20:27.726Z,100.00
2023-03-26T05:24:39.346Z,100.00
2023-03-26T05:28:52.781Z,100.00
2023-03-26T05:33:24.858Z,100.00
2023-03-26T05:37:58.215Z,100.00
2023-03-26T05:42:10.908Z,100.00
2023-03-26T05:46:41.066Z,100.00
2023-03-26T05:50:57.383Z,100.00
2023-03-26T05:55:11.390Z,100.00
2023-03-26T05:59:42.101Z,100.00
2023-03-26T06:04:12.773Z,100.00
2023-03-26T06:08:31.333Z,100.00
2023-03-26T06:12:42.887Z,100.00
2023-03-26T06:16:54.511Z,100.00
2023-03-26T06:21:06.838Z,100.00
2023-03-26T06:25:30.125Z,100.00
2023-03-26T06:30:06.812Z,100.00
2023-03-26T06:34:38.662Z,100.00
2023-03-26T06:38:50.291Z,100.00
2023-03-26T06:43:07.418Z,100.00
2023-03-26T06:47:34.022Z,100.00
2023-03-26T06:52:04.631Z,100.00
2023-03-26T06:56:27.131Z,100.00
2023-03-26T07:00:57.378Z,100.00
2023-03-26T07:05:27.560Z,100.00
2023-03-26T07:09:57.820Z,100.00
2023-03-26T07:14:32.459Z,100.00
2023-03-26T07:19:02.589Z,100.00
2023-03-26T07:23:20.762Z,100.00
2023-03-26T07:28:11.427Z,100.00
2023-03-26T07:32:40.506Z,100.00
2023-03-26T07:37:20.074Z,100.00
2023-03-26T07:41:59.677Z,100.00
2023-03-26T07:46:36.906Z,100.00
2023-03-26T07:51:18.821Z,100.00
2023-03-26T07:55:57.935Z,100.00
2023-03-26T08:00:52.232Z,100.00
2023-03-26T08:05:31.714Z,100.00
2023-03-26T08:10:16.025Z,100.00
2023-03-26T08:14:43.517Z,100.00
2023-03-26T08:18:58.094Z,100.00
2023-03-26T08:23:15.479Z,100.00
2023-03-26T08:27:41.818Z,100.00
2023-03-26T08:31:54.751Z,100.00
2023-03-26T08:36:08.487Z,100.00
2023-03-26T08:40:42.073Z,100.00
2023-03-26T08:45:12.260Z,100.00
2023-03-26T08:49:30.217Z,100.00
2023-03-26T08:53:54.517Z,100.00
2023-03-26T08:58:24.603Z,100.00
2023-03-26T09:02:51.205Z,100.00
2023-03-26T09:07:40.465Z,100.00
2023-03-26T09:12:14.193Z,100.00
2023-03-26T09:17:06.599Z,100.00
2023-03-26T09:21:49.734Z,100.00
2023-03-26T09:26:26.079Z,100.00
2023-03-26T09:31:09.707Z,100.00
2023-03-26T09:35:33.374Z,100.00
2023-03-26T09:40:18.640Z,100.00
2023-03-26T09:44:58.184Z,100.00
2023-03-26T09:49:18.080Z,100.00
2023-03-26T09:53:53.761Z,100.00
2023-03-26T09:58:27.061Z,100.00
2023-03-26T10:03:12.730Z,99.64
2023-03-26T10:07:42.960Z,99.25
2023-03-26T10:12:22.211Z,94.45
2023-03-26T10:16:59.590Z,95.20
2023-03-26T10:21:19.489Z,91.88
2023-03-26T10:25:52.843Z,89.70
2023-03-26T10:30:20.777Z,87.78
2023-03-26T10:34:53.788Z,89.02
2023-03-26T10:39:52.172Z,82.79
2023-03-26T10:44:09.328Z,79.46
2023-03-26T10:48:44.825Z,78.32
2023-03-26T10:53:21.043Z,78.32
2023-03-26T10:58:10.375Z,78.40
2023-03-26T11:02:38.113Z,79.92
2023-03-26T11:07:05.031Z,78.03
2023-03-26T11:11:38.472Z,79.00
2023-03-26T11:15:59.630Z,78.60
2023-03-26T11:20:35.176Z,78.14
2023-03-26T11:25:22.976Z,75.25
2023-03-26T11:30:13.526Z,74.60
2023-03-26T11:34:49.439Z,75.03
2023-03-26T11:39:04.555Z,70.74
2023-03-26T11:43:24.063Z,71.32
2023-03-26T11:47:45.091Z,66.11
2023-03-26T11:51:56.673Z,66.99
2023-03-26T11:56:26.379Z,66.41
2023-03-26T12:00:40.136Z,66.98
2023-03-26T12:04:55.257Z,64.62
2023-03-26T12:09:18.645Z,62.48
2023-03-26T12:13:52.168Z,62.58
2023-03-26T12:18:28.239Z,63.92
2023-03-26T12:22:43.390Z,62.64
2023-03-26T12:27:03.855Z,63.83
2023-03-26T12:31:20.444Z,64.49
2023-03-26T12:35:34.840Z,66.17
2023-03-26T12:40:07.672Z,67.74
2023-03-26T12:44:49.338Z,65.22
2023-03-26T12:49:11.892Z,66.77
2023-03-26T12:54:00.407Z,66.64
2023-03-26T12:58:56.601Z,66.95
2023-03-26T13:03:14.286Z,68.80
2023-03-26T13:07:39.827Z,69.25
2023-03-26T13:12:09.086Z,70.01
2023-03-26T13:16:53.404Z,69.93
2023-03-26T13:21:28.632Z,69.40
2023-03-26T13:25:50.724Z,70.19
2023-03-26T13:30:27.054Z,71.96
2023-03-26T13:35:04.184Z,73.35
2023-03-26T13:39:23.510Z,76.37
2023-03-26T13:44:00.517Z,77.87
2023-03-26T13:48:19.034Z,77.97
2023-03-26T13:52:52.108Z,79.70
2023-03-26T13:57:40.116Z,79.46
2023-03-26T14:01:59.855Z,78.52
2023-03-26T14:06:30.675Z,79.35
2023-03-26T14:10:48.778Z,79.77
2023-03-26T14:15:26.235Z,78.80
2023-03-26T14:20:24.197Z,80.02
2023-03-26T14:25:16.918Z,80.58
2023-03-26T14:29:30.491Z,82.58
2023-03-26T14:33:52.419Z,82.28
2023-03-26T14:38:12.951Z,82.55
2023-03-26T14:42:43.180Z,82.82
2023-03-26T14:47:20.609Z,82.56
2023-03-26T14:51:58.307Z,81.60
2023-03-26T14:56:37.152Z,80.90
2023-03-26T15:01:25.342Z,80.05
2023-03-26T15:05:49.458Z,78.69
2023-03-26T15:10:10.094Z,78.49
2023-03-26T15:14:56.248Z,78.34
2023-03-26T15:19:36.626Z,77.84
2023-03-26T15:24:19.086Z,80.56
2023-03-26T15:29:04.537Z,81.92
2023-03-26T15:33:34.987Z,87.61
2023-03-26T15:38:09.265Z,91.67
2023-03-26T15:42:51.477Z,95.27
2023-03-26T15:47:40.408Z,97.50
2023-03-26T15:52:13.954Z,99.66
2023-03-26T15:56:44.345Z,97.86
2023-03-26T16:01:22.439Z,98.66
2023-03-26T16:06:06.061Z,96.48
2023-03-26T16:10:38.340Z,97.08
2023-03-26T16:15:20.795Z,95.73
2023-03-26T16:19:46.071Z,96.97
2023-03-26T16:24:03.604Z,96.63
2023-03-26T16:28:27.822Z,96.38
2023-03-26T16:32:54.069Z,95.05
2023-03-26T16:37:45.847Z,95.89
2023-03-26T16:42:06.431Z,95.80
2023-03-26T16:46:29.114Z,96.33
2023-03-26T16:51:07.180Z,96.22
2023-03-26T16:55:37.277Z,97.21
2023-03-26T17:00:08.219Z,96.62
2023-03-26T17:04:24.799Z,96.87
2023-03-26T17:08:59.420Z,96.58
2023-03-26T17:13:23.347Z,94.52
2023-03-26T17:17:41.058Z,94.94
2023-03-26T17:22:11.090Z,94.97
2023-03-26T17:26:38.179Z,95.42
2023-03-26T17:31:03.183Z,95.30
2023-03-26T17:35:15.487Z,95.91
2023-03-26T17:39:39.087Z,96.12
2023-03-26T17:43:52.308Z,95.91
2023-03-26T17:48:16.068Z,96.64
2023-03-26T17:52:41.046Z,96.11
2023-03-26T17:56:56.403Z,95.73
2023-03-26T18:01:23.057Z,96.18
2023-03-26T18:05:39.154Z,97.01
2023-03-26T18:10:18.822Z,97.24
2023-03-26T18:14:41.933Z,97.04
2023-03-26T18:19:00.623Z,97.37
2023-03-26T18:23:21.854Z,96.85
2023-03-26T18:27:39.248Z,97.45
2023-03-26T18:32:03.446Z,97.53
2023-03-26T18:36:18.468Z,97.22
2023-03-26T18:40:39.569Z,97.47
2023-03-26T18:44:52.070Z,97.70
2023-03-26T18:49:03.828Z,97.37
2023-03-26T18:53:22.284Z,97.29
2023-03-26T18:57:33.941Z,96.99
2023-03-26T19:01:48.489Z,97.46
2023-03-26T19:06:02.268Z,97.29
2023-03-26T19:10:21.210Z,97.48
2023-03-26T19:14:36.662Z,98.63
2023-03-26T19:18:48.925Z,99.87
2023-03-26T19:23:00.602Z,100.00
2023-03-26T19:27:12.674Z,100.00
2023-03-26T19:31:30.163Z,100.00
2023-03-26T19:35:43.510Z,100.00
2023-03-26T19:40:01.784Z,100.00
2023-03-26T19:44:21.190Z,100.00
2023-03-26T19:48:45.760Z,100.00
2023-03-26T19:53:16.581Z,100.00
2023-03-26T19:57:36.244Z,100.00
2023-03-26T20:01:47.765Z,100.00
2023-03-26T20:05:59.347Z,100.00
2023-03-26T20:10:12.098Z,100.00
2023-03-26T20:14:25.991Z,100.00
2023-03-26T20:18:38.631Z,100.00
2023-03-26T20:22:50.545Z,100.00
2023-03-26T20:27:02.043Z,100.00
2023-03-26T20:31:19.456Z,100.00
2023-03-26T20:35:36.270Z,100.00
2023-03-26T20:39:48.204Z,100.00
2023-03-26T20:43:59.748Z,100.00
2023-03-26T20:48:11.824Z,100.00
2023-03-26T20:52:25.528Z,100.00
2023-03-26T20:56:37.653Z,100.00
2023-03-26T21:00:50.672Z,100.00
2023-03-26T21:05:02.826Z,100.00
2023-03-26T21:09:17.744Z,100.00
2023-03-26T21:13:44.147Z,100.00
2023-03-26T21:17:56.639Z,100.00
2023-03-26T21:22:54.290Z,100.00
2023-03-26T21:27:30.936Z,100.00
